sensor_id;sensor_type;location;lat;lon;timestamp;temperature;humidity
33580;DHT22;19909;43.644;-79.438;2022-09-13T00:02:10;25.40;56.00
33580;DHT22;19909;43.644;-79.438;2022-09-13T00:04:37;25.40;55.90
33580;DHT22;19909;43.644;-79.438;2022-09-13T00:07:03;25.40;56.00
33580;DHT22;19909;43.644;-79.438;2022-09-13T00:09:29;25.40;55.90
33580;DHT22;19909;43.644;-79.438;2022-09-13T00:11:55;25.40;56.50
33580;DHT22;19909;43.644;-79.438;2022-09-13T00:14:21;25.40;55.90
33580;DHT22;19909;43.644;-79.438;2022-09-13T00:16:51;25.40;55.90
33580;DHT22;19909;43.644;-79.438;2022-09-13T00:19:17;25.40;56.00
33580;DHT22;19909;43.644;-79.438;2022-09-13T00:21:43;25.40;55.90
33580;DHT22;19909;43.644;-79.438;2022-09-13T00:24:09;25.40;55.90
33580;DHT22;19909;43.644;-79.438;2022-09-13T00:26:36;25.40;56.00
33580;DHT22;19909;43.644;-79.438;2022-09-13T00:29:02;25.40;55.90
33580;DHT22;19909;43.644;-79.438;2022-09-13T00:31:28;25.40;55.90
33580;DHT22;19909;43.644;-79.438;2022-09-13T00:33:57;25.40;55.90
33580;DHT22;19909;43.644;-79.438;2022-09-13T00:36:23;25.40;55.90
33580;DHT22;19909;43.644;-79.438;2022-09-13T00:38:49;25.40;55.90
33580;DHT22;19909;43.644;-79.438;2022-09-13T00:41:18;25.40;55.90
33580;DHT22;19909;43.644;-79.438;2022-09-13T00:43:52;25.40;55.90
33580;DHT22;19909;43.644;-79.438;2022-09-13T00:48:54;25.40;55.90
33580;DHT22;19909;43.644;-79.438;2022-09-13T00:51:21;25.40;55.90
33580;DHT22;19909;43.644;-79.438;2022-09-13T00:53:50;25.40;55.90
33580;DHT22;19909;43.644;-79.438;2022-09-13T00:56:23;25.40;55.90
33580;DHT22;19909;43.644;-79.438;2022-09-13T00:59:01;25.40;55.90
33580;DHT22;19909;43.644;-79.438;2022-09-13T01:01:43;25.40;55.90
33580;DHT22;19909;43.644;-79.438;2022-09-13T01:04:11;25.40;55.90
33580;DHT22;19909;43.644;-79.438;2022-09-13T01:06:39;25.40;55.90
33580;DHT22;19909;43.644;-79.438;2022-09-13T01:09:06;25.40;55.90
33580;DHT22;19909;43.644;-79.438;2022-09-13T01:11:46;25.40;55.90
33580;DHT22;19909;43.644;-79.438;2022-09-13T01:14:16;25.40;55.80
33580;DHT22;19909;43.644;-79.438;2022-09-13T01:16:43;25.40;55.80
33580;DHT22;19909;43.644;-79.438;2022-09-13T01:19:10;25.40;55.90
33580;DHT22;19909;43.644;-79.438;2022-09-13T01:22:01;25.40;55.90
33580;DHT22;19909;43.644;-79.438;2022-09-13T01:33:11;25.40;55.80
33580;DHT22;19909;43.644;-79.438;2022-09-13T01:38:54;25.40;55.80
33580;DHT22;19909;43.644;-79.438;2022-09-13T01:44:27;25.40;55.80
33580;DHT22;19909;43.644;-79.438;2022-09-13T01:50:21;25.40;55.90
33580;DHT22;19909;43.644;-79.438;2022-09-13T02:00:46;25.30;55.70
33580;DHT22;19909;43.644;-79.438;2022-09-13T02:03:16;25.40;55.70
33580;DHT22;19909;43.644;-79.438;2022-09-13T02:05:53;25.40;55.70
33580;DHT22;19909;43.644;-79.438;2022-09-13T02:08:42;25.40;55.70
33580;DHT22;19909;43.644;-79.438;2022-09-13T02:11:15;25.40;55.80
33580;DHT22;19909;43.644;-79.438;2022-09-13T02:16:29;25.30;55.70
33580;DHT22;19909;43.644;-79.438;2022-09-13T02:19:19;25.40;55.70
33580;DHT22;19909;43.644;-79.438;2022-09-13T02:21:55;25.30;55.70
33580;DHT22;19909;43.644;-79.438;2022-09-13T02:24:29;25.40;55.70
33580;DHT22;19909;43.644;-79.438;2022-09-13T02:27:01;25.40;55.70
33580;DHT22;19909;43.644;-79.438;2022-09-13T02:29:29;25.30;55.60
33580;DHT22;19909;43.644;-79.438;2022-09-13T02:34:43;25.40;55.70
33580;DHT22;19909;43.644;-79.438;2022-09-13T02:37:11;25.30;55.60
33580;DHT22;19909;43.644;-79.438;2022-09-13T02:39:47;25.30;55.60
33580;DHT22;19909;43.644;-79.438;2022-09-13T02:42:18;25.30;55.60
33580;DHT22;19909;43.644;-79.438;2022-09-13T02:44:49;25.30;55.60
33580;DHT22;19909;43.644;-79.438;2022-09-13T02:47:55;25.30;55.60
33580;DHT22;19909;43.644;-79.438;2022-09-13T02:58:51;25.30;55.60
33580;DHT22;19909;43.644;-79.438;2022-09-13T03:01:19;25.40;55.60
33580;DHT22;19909;43.644;-79.438;2022-09-13T03:03:46;25.30;55.60
33580;DHT22;19909;43.644;-79.438;2022-09-13T03:06:20;25.30;55.60
33580;DHT22;19909;43.644;-79.438;2022-09-13T03:08:46;25.30;55.60
33580;DHT22;19909;43.644;-79.438;2022-09-13T03:11:32;25.30;55.60
33580;DHT22;19909;43.644;-79.438;2022-09-13T03:23:02;25.30;55.50
33580;DHT22;19909;43.644;-79.438;2022-09-13T03:25:42;25.30;55.60
33580;DHT22;19909;43.644;-79.438;2022-09-13T03:31:12;25.30;55.60
33580;DHT22;19909;43.644;-79.438;2022-09-13T03:33:54;25.30;55.50
33580;DHT22;19909;43.644;-79.438;2022-09-13T03:36:41;25.30;55.50
33580;DHT22;19909;43.644;-79.438;2022-09-13T03:39:31;25.30;55.50
33580;DHT22;19909;43.644;-79.438;2022-09-13T03:42:05;25.30;55.60
33580;DHT22;19909;43.644;-79.438;2022-09-13T03:44:35;25.30;55.50
33580;DHT22;19909;43.644;-79.438;2022-09-13T03:47:03;25.30;55.50
33580;DHT22;19909;43.644;-79.438;2022-09-13T03:49:31;25.30;55.60
33580;DHT22;19909;43.644;-79.438;2022-09-13T03:51:58;25.30;55.60
33580;DHT22;19909;43.644;-79.438;2022-09-13T03:54:28;25.30;55.50
33580;DHT22;19909;43.644;-79.438;2022-09-13T03:59:41;25.30;55.50
33580;DHT22;19909;43.644;-79.438;2022-09-13T04:02:09;25.30;55.50
33580;DHT22;19909;43.644;-79.438;2022-09-13T04:04:37;25.30;55.50
33580;DHT22;19909;43.644;-79.438;2022-09-13T04:07:03;25.30;55.40
33580;DHT22;19909;43.644;-79.438;2022-09-13T04:09:30;25.30;55.50
33580;DHT22;19909;43.644;-79.438;2022-09-13T04:11:56;25.30;55.50
33580;DHT22;19909;43.644;-79.438;2022-09-13T04:14:23;25.30;55.40
33580;DHT22;19909;43.644;-79.438;2022-09-13T04:16:55;25.30;55.40
33580;DHT22;19909;43.644;-79.438;2022-09-13T04:19:23;25.30;55.40
33580;DHT22;19909;43.644;-79.438;2022-09-13T04:21:53;25.30;55.40
33580;DHT22;19909;43.644;-79.438;2022-09-13T04:24:24;25.30;55.50
33580;DHT22;19909;43.644;-79.438;2022-09-13T04:26:52;25.30;55.50
33580;DHT22;19909;43.644;-79.438;2022-09-13T04:29:20;25.30;55.50
33580;DHT22;19909;43.644;-79.438;2022-09-13T04:31:47;25.30;55.50
33580;DHT22;19909;43.644;-79.438;2022-09-13T04:34:14;25.30;55.60
33580;DHT22;19909;43.644;-79.438;2022-09-13T04:36:42;25.30;55.50
33580;DHT22;19909;43.644;-79.438;2022-09-13T04:39:08;25.30;55.50
33580;DHT22;19909;43.644;-79.438;2022-09-13T04:41:34;25.30;55.50
33580;DHT22;19909;43.644;-79.438;2022-09-13T04:44:01;25.30;55.50
33580;DHT22;19909;43.644;-79.438;2022-09-13T04:46:28;25.30;55.50
33580;DHT22;19909;43.644;-79.438;2022-09-13T04:48:54;25.30;55.50
33580;DHT22;19909;43.644;-79.438;2022-09-13T04:51:20;25.30;55.50
33580;DHT22;19909;43.644;-79.438;2022-09-13T04:53:51;25.30;56.00
33580;DHT22;19909;43.644;-79.438;2022-09-13T04:56:21;25.30;55.60
33580;DHT22;19909;43.644;-79.438;2022-09-13T04:58:51;25.30;55.50
33580;DHT22;19909;43.644;-79.438;2022-09-13T05:01:19;25.30;55.50
33580;DHT22;19909;43.644;-79.438;2022-09-13T05:03:46;25.30;55.50
33580;DHT22;19909;43.644;-79.438;2022-09-13T05:06:16;25.30;55.50
33580;DHT22;19909;43.644;-79.438;2022-09-13T05:08:43;25.30;55.50
33580;DHT22;19909;43.644;-79.438;2022-09-13T05:11:10;25.30;55.50
33580;DHT22;19909;43.644;-79.438;2022-09-13T05:13:36;25.30;55.50
33580;DHT22;19909;43.644;-79.438;2022-09-13T05:16:04;25.30;55.40
33580;DHT22;19909;43.644;-79.438;2022-09-13T05:18:33;25.30;55.40
33580;DHT22;19909;43.644;-79.438;2022-09-13T05:21:01;25.30;55.40
33580;DHT22;19909;43.644;-79.438;2022-09-13T05:23:28;25.30;55.50
33580;DHT22;19909;43.644;-79.438;2022-09-13T05:25:57;25.30;55.40
33580;DHT22;19909;43.644;-79.438;2022-09-13T05:28:25;25.30;55.40
33580;DHT22;19909;43.644;-79.438;2022-09-13T05:31:00;25.30;55.30
33580;DHT22;19909;43.644;-79.438;2022-09-13T05:33:28;25.30;55.30
33580;DHT22;19909;43.644;-79.438;2022-09-13T05:35:55;25.30;55.30
33580;DHT22;19909;43.644;-79.438;2022-09-13T05:38:22;25.30;55.30
33580;DHT22;19909;43.644;-79.438;2022-09-13T05:40:53;25.30;55.30
33580;DHT22;19909;43.644;-79.438;2022-09-13T05:43:22;25.30;55.40
33580;DHT22;19909;43.644;-79.438;2022-09-13T05:45:49;25.30;55.30
33580;DHT22;19909;43.644;-79.438;2022-09-13T05:48:16;25.30;55.30
33580;DHT22;19909;43.644;-79.438;2022-09-13T05:50:42;25.30;55.30
33580;DHT22;19909;43.644;-79.438;2022-09-13T05:53:08;25.30;55.20
33580;DHT22;19909;43.644;-79.438;2022-09-13T05:55:35;25.30;55.20
33580;DHT22;19909;43.644;-79.438;2022-09-13T05:58:01;25.30;55.20
33580;DHT22;19909;43.644;-79.438;2022-09-13T06:00:28;25.30;55.20
33580;DHT22;19909;43.644;-79.438;2022-09-13T06:02:56;25.30;55.20
33580;DHT22;19909;43.644;-79.438;2022-09-13T06:05:23;25.30;55.20
33580;DHT22;19909;43.644;-79.438;2022-09-13T06:07:49;25.20;55.20
33580;DHT22;19909;43.644;-79.438;2022-09-13T06:10:15;25.30;55.20
33580;DHT22;19909;43.644;-79.438;2022-09-13T06:12:42;25.30;55.20
33580;DHT22;19909;43.644;-79.438;2022-09-13T06:15:08;25.30;55.20
33580;DHT22;19909;43.644;-79.438;2022-09-13T06:17:36;25.30;55.20
33580;DHT22;19909;43.644;-79.438;2022-09-13T06:20:03;25.30;55.10
33580;DHT22;19909;43.644;-79.438;2022-09-13T06:22:30;25.30;55.10
33580;DHT22;19909;43.644;-79.438;2022-09-13T06:25:01;25.20;55.10
33580;DHT22;19909;43.644;-79.438;2022-09-13T06:27:28;25.30;55.20
33580;DHT22;19909;43.644;-79.438;2022-09-13T06:29:56;25.30;55.20
33580;DHT22;19909;43.644;-79.438;2022-09-13T06:32:22;25.20;55.10
33580;DHT22;19909;43.644;-79.438;2022-09-13T06:34:48;25.20;55.60
33580;DHT22;19909;43.644;-79.438;2022-09-13T06:37:14;25.20;55.10
33580;DHT22;19909;43.644;-79.438;2022-09-13T06:39:40;25.20;55.00
33580;DHT22;19909;43.644;-79.438;2022-09-13T06:42:07;25.30;55.10
33580;DHT22;19909;43.644;-79.438;2022-09-13T06:44:33;25.30;55.10
33580;DHT22;19909;43.644;-79.438;2022-09-13T06:47:00;25.30;55.10
33580;DHT22;19909;43.644;-79.438;2022-09-13T06:49:26;25.20;55.00
33580;DHT22;19909;43.644;-79.438;2022-09-13T06:51:53;25.20;55.00
33580;DHT22;19909;43.644;-79.438;2022-09-13T06:54:20;25.30;55.10
33580;DHT22;19909;43.644;-79.438;2022-09-13T06:56:46;25.20;55.10
33580;DHT22;19909;43.644;-79.438;2022-09-13T06:59:12;25.20;55.00
33580;DHT22;19909;43.644;-79.438;2022-09-13T07:01:43;25.20;55.00
33580;DHT22;19909;43.644;-79.438;2022-09-13T07:04:16;25.30;55.10
33580;DHT22;19909;43.644;-79.438;2022-09-13T07:06:48;25.30;55.00
33580;DHT22;19909;43.644;-79.438;2022-09-13T07:09:17;25.20;55.00
33580;DHT22;19909;43.644;-79.438;2022-09-13T07:11:45;25.20;55.00
33580;DHT22;19909;43.644;-79.438;2022-09-13T07:14:17;25.20;55.00
33580;DHT22;19909;43.644;-79.438;2022-09-13T07:16:44;25.20;55.00
33580;DHT22;19909;43.644;-79.438;2022-09-13T07:19:16;25.20;55.00
33580;DHT22;19909;43.644;-79.438;2022-09-13T07:21:43;25.20;54.90
33580;DHT22;19909;43.644;-79.438;2022-09-13T07:24:10;25.20;55.00
33580;DHT22;19909;43.644;-79.438;2022-09-13T07:26:36;25.20;55.00
33580;DHT22;19909;43.644;-79.438;2022-09-13T07:29:05;25.20;55.00
33580;DHT22;19909;43.644;-79.438;2022-09-13T07:31:37;25.20;54.90
33580;DHT22;19909;43.644;-79.438;2022-09-13T07:34:18;25.20;54.90
33580;DHT22;19909;43.644;-79.438;2022-09-13T07:36:45;25.20;54.90
33580;DHT22;19909;43.644;-79.438;2022-09-13T07:39:14;25.20;55.00
33580;DHT22;19909;43.644;-79.438;2022-09-13T07:41:40;25.20;55.00
33580;DHT22;19909;43.644;-79.438;2022-09-13T07:44:09;25.20;54.90
33580;DHT22;19909;43.644;-79.438;2022-09-13T07:46:37;25.20;55.40
33580;DHT22;19909;43.644;-79.438;2022-09-13T07:49:06;25.20;54.80
33580;DHT22;19909;43.644;-79.438;2022-09-13T07:51:35;25.20;54.80
33580;DHT22;19909;43.644;-79.438;2022-09-13T07:54:03;25.20;54.90
33580;DHT22;19909;43.644;-79.438;2022-09-13T07:56:32;25.20;54.80
33580;DHT22;19909;43.644;-79.438;2022-09-13T07:59:04;25.20;54.80
33580;DHT22;19909;43.644;-79.438;2022-09-13T08:01:39;25.20;54.80
33580;DHT22;19909;43.644;-79.438;2022-09-13T08:04:10;25.20;54.70
33580;DHT22;19909;43.644;-79.438;2022-09-13T08:06:39;25.20;54.70
33580;DHT22;19909;43.644;-79.438;2022-09-13T08:09:07;25.20;54.80
33580;DHT22;19909;43.644;-79.438;2022-09-13T08:14:05;25.20;54.70
33580;DHT22;19909;43.644;-79.438;2022-09-13T08:16:32;25.20;54.70
33580;DHT22;19909;43.644;-79.438;2022-09-13T08:19:00;25.20;54.70
33580;DHT22;19909;43.644;-79.438;2022-09-13T08:21:32;25.20;54.70
33580;DHT22;19909;43.644;-79.438;2022-09-13T08:23:59;25.20;54.70
33580;DHT22;19909;43.644;-79.438;2022-09-13T08:26:29;25.20;54.70
33580;DHT22;19909;43.644;-79.438;2022-09-13T08:29:01;25.20;54.70
33580;DHT22;19909;43.644;-79.438;2022-09-13T08:31:29;25.20;54.60
33580;DHT22;19909;43.644;-79.438;2022-09-13T08:33:56;25.20;54.70
33580;DHT22;19909;43.644;-79.438;2022-09-13T08:36:24;25.20;54.70
33580;DHT22;19909;43.644;-79.438;2022-09-13T08:38:52;25.20;54.70
33580;DHT22;19909;43.644;-79.438;2022-09-13T08:46:55;25.20;55.10
33580;DHT22;19909;43.644;-79.438;2022-09-13T08:49:31;25.20;54.70
33580;DHT22;19909;43.644;-79.438;2022-09-13T08:54:38;25.20;54.70
33580;DHT22;19909;43.644;-79.438;2022-09-13T09:03:01;25.20;54.60
33580;DHT22;19909;43.644;-79.438;2022-09-13T09:05:46;25.20;54.60
33580;DHT22;19909;43.644;-79.438;2022-09-13T09:08:30;25.20;54.60
33580;DHT22;19909;43.644;-79.438;2022-09-13T09:11:06;25.20;54.60
33580;DHT22;19909;43.644;-79.438;2022-09-13T09:14:01;25.10;54.60
33580;DHT22;19909;43.644;-79.438;2022-09-13T09:16:35;25.20;54.60
33580;DHT22;19909;43.644;-79.438;2022-09-13T09:19:18;25.10;54.60
33580;DHT22;19909;43.644;-79.438;2022-09-13T09:21:49;25.10;54.60
33580;DHT22;19909;43.644;-79.438;2022-09-13T09:24:21;25.20;54.60
33580;DHT22;19909;43.644;-79.438;2022-09-13T09:26:47;25.20;54.60
33580;DHT22;19909;43.644;-79.438;2022-09-13T09:29:20;25.10;54.50
33580;DHT22;19909;43.644;-79.438;2022-09-13T09:37:28;25.20;54.50
33580;DHT22;19909;43.644;-79.438;2022-09-13T09:39:59;25.20;54.60
33580;DHT22;19909;43.644;-79.438;2022-09-13T09:42:47;25.20;54.60
33580;DHT22;19909;43.644;-79.438;2022-09-13T09:45:26;25.20;54.60
33580;DHT22;19909;43.644;-79.438;2022-09-13T09:47:55;25.20;54.60
33580;DHT22;19909;43.644;-79.438;2022-09-13T09:50:35;25.10;54.50
33580;DHT22;19909;43.644;-79.438;2022-09-13T09:53:27;25.20;54.50
33580;DHT22;19909;43.644;-79.438;2022-09-13T09:56:20;25.20;54.50
33580;DHT22;19909;43.644;-79.438;2022-09-13T09:58:48;25.10;54.50
33580;DHT22;19909;43.644;-79.438;2022-09-13T10:01:24;25.10;54.50
33580;DHT22;19909;43.644;-79.438;2022-09-13T10:06:41;25.10;54.40
33580;DHT22;19909;43.644;-79.438;2022-09-13T10:09:19;25.10;54.50
33580;DHT22;19909;43.644;-79.438;2022-09-13T10:14:41;25.10;54.50
33580;DHT22;19909;43.644;-79.438;2022-09-13T10:17:19;25.20;54.50
33580;DHT22;19909;43.644;-79.438;2022-09-13T10:20:00;25.10;54.50
33580;DHT22;19909;43.644;-79.438;2022-09-13T10:22:30;25.10;54.40
33580;DHT22;19909;43.644;-79.438;2022-09-13T10:25:24;25.10;54.50
33580;DHT22;19909;43.644;-79.438;2022-09-13T10:27:56;25.10;54.50
33580;DHT22;19909;43.644;-79.438;2022-09-13T10:31:04;25.10;54.50
33580;DHT22;19909;43.644;-79.438;2022-09-13T10:33:43;25.10;54.40
33580;DHT22;19909;43.644;-79.438;2022-09-13T10:36:18;25.10;54.40
33580;DHT22;19909;43.644;-79.438;2022-09-13T10:39:13;25.10;54.40
33580;DHT22;19909;43.644;-79.438;2022-09-13T10:42:06;25.10;54.50
33580;DHT22;19909;43.644;-79.438;2022-09-13T10:44:45;25.10;54.50
33580;DHT22;19909;43.644;-79.438;2022-09-13T10:47:22;25.10;54.40
33580;DHT22;19909;43.644;-79.438;2022-09-13T10:49:54;25.10;54.50
33580;DHT22;19909;43.644;-79.438;2022-09-13T10:52:27;25.10;54.40
33580;DHT22;19909;43.644;-79.438;2022-09-13T10:54:54;25.10;54.40
33580;DHT22;19909;43.644;-79.438;2022-09-13T10:58:11;25.10;54.40
33580;DHT22;19909;43.644;-79.438;2022-09-13T11:09:18;25.00;54.40
33580;DHT22;19909;43.644;-79.438;2022-09-13T11:25:48;25.10;54.40
33580;DHT22;19909;43.644;-79.438;2022-09-13T11:28:31;25.00;54.30
33580;DHT22;19909;43.644;-79.438;2022-09-13T11:39:55;25.00;54.40
33580;DHT22;19909;43.644;-79.438;2022-09-13T11:42:53;25.00;54.40
33580;DHT22;19909;43.644;-79.438;2022-09-13T11:45:29;25.00;54.30
33580;DHT22;19909;43.644;-79.438;2022-09-13T11:51:12;25.00;54.30
33580;DHT22;19909;43.644;-79.438;2022-09-13T12:01:53;25.00;54.40
33580;DHT22;19909;43.644;-79.438;2022-09-13T12:04:28;25.00;54.40
33580;DHT22;19909;43.644;-79.438;2022-09-13T12:07:05;25.00;54.40
33580;DHT22;19909;43.644;-79.438;2022-09-13T12:09:40;25.00;54.40
33580;DHT22;19909;43.644;-79.438;2022-09-13T12:12:12;25.00;54.40
33580;DHT22;19909;43.644;-79.438;2022-09-13T12:14:44;25.00;54.40
33580;DHT22;19909;43.644;-79.438;2022-09-13T12:19:56;25.00;54.40
33580;DHT22;19909;43.644;-79.438;2022-09-13T12:22:28;25.00;54.30
33580;DHT22;19909;43.644;-79.438;2022-09-13T12:25:01;25.00;54.30
33580;DHT22;19909;43.644;-79.438;2022-09-13T12:27:59;25.10;55.00
33580;DHT22;19909;43.644;-79.438;2022-09-13T12:30:44;25.00;54.30
33580;DHT22;19909;43.644;-79.438;2022-09-13T12:33:15;25.00;54.20
33580;DHT22;19909;43.644;-79.438;2022-09-13T12:49:42;25.00;54.20
33580;DHT22;19909;43.644;-79.438;2022-09-13T12:53:35;25.00;54.20
33580;DHT22;19909;43.644;-79.438;2022-09-13T13:01:16;25.00;54.30
33580;DHT22;19909;43.644;-79.438;2022-09-13T13:03:17;25.00;54.20
33580;DHT22;19909;43.644;-79.438;2022-09-13T13:05:48;25.00;54.20
33580;DHT22;19909;43.644;-79.438;2022-09-13T13:10:58;25.00;54.30
33580;DHT22;19909;43.644;-79.438;2022-09-13T13:18:51;25.00;54.10
33580;DHT22;19909;43.644;-79.438;2022-09-13T13:21:36;25.00;54.10
33580;DHT22;19909;43.644;-79.438;2022-09-13T13:26:48;25.00;54.20
33580;DHT22;19909;43.644;-79.438;2022-09-13T13:29:20;25.00;54.20
33580;DHT22;19909;43.644;-79.438;2022-09-13T13:34:47;25.00;54.30
33580;DHT22;19909;43.644;-79.438;2022-09-13T13:39:45;25.00;54.30
33580;DHT22;19909;43.644;-79.438;2022-09-13T13:42:31;25.00;54.30
33580;DHT22;19909;43.644;-79.438;2022-09-13T13:50:15;25.00;54.20
33580;DHT22;19909;43.644;-79.438;2022-09-13T13:52:54;25.00;54.20
33580;DHT22;19909;43.644;-79.438;2022-09-13T14:00:50;25.00;54.20
33580;DHT22;19909;43.644;-79.438;2022-09-13T14:06:32;25.00;54.20
33580;DHT22;19909;43.644;-79.438;2022-09-13T14:12:00;25.00;54.20
33580;DHT22;19909;43.644;-79.438;2022-09-13T14:14:40;25.00;54.30
33580;DHT22;19909;43.644;-79.438;2022-09-13T14:20:03;25.00;54.30
33580;DHT22;19909;43.644;-79.438;2022-09-13T14:22:33;25.00;54.20
33580;DHT22;19909;43.644;-79.438;2022-09-13T14:25:25;25.00;54.20
33580;DHT22;19909;43.644;-79.438;2022-09-13T14:27:57;25.00;54.20
33580;DHT22;19909;43.644;-79.438;2022-09-13T14:32:55;25.00;54.10
33580;DHT22;19909;43.644;-79.438;2022-09-13T14:35:29;25.00;54.20
33580;DHT22;19909;43.644;-79.438;2022-09-13T14:38:12;25.00;54.20
33580;DHT22;19909;43.644;-79.438;2022-09-13T14:40:38;25.00;54.20
33580;DHT22;19909;43.644;-79.438;2022-09-13T14:43:23;24.90;54.10
33580;DHT22;19909;43.644;-79.438;2022-09-13T14:48:58;25.00;54.10
33580;DHT22;19909;43.644;-79.438;2022-09-13T14:51:29;25.00;54.10
33580;DHT22;19909;43.644;-79.438;2022-09-13T14:54:05;25.00;54.10
33580;DHT22;19909;43.644;-79.438;2022-09-13T14:56:40;25.00;54.20
33580;DHT22;19909;43.644;-79.438;2022-09-13T15:02:21;25.00;54.10
33580;DHT22;19909;43.644;-79.438;2022-09-13T15:04:53;25.00;54.10
33580;DHT22;19909;43.644;-79.438;2022-09-13T15:07:40;25.00;54.10
33580;DHT22;19909;43.644;-79.438;2022-09-13T15:12:34;25.00;54.20
33580;DHT22;19909;43.644;-79.438;2022-09-13T15:18:23;25.00;54.10
33580;DHT22;19909;43.644;-79.438;2022-09-13T15:20:52;25.00;54.10
33580;DHT22;19909;43.644;-79.438;2022-09-13T15:26:06;25.00;54.20
33580;DHT22;19909;43.644;-79.438;2022-09-13T15:28:48;25.00;54.20
33580;DHT22;19909;43.644;-79.438;2022-09-13T15:31:45;24.90;54.10
33580;DHT22;19909;43.644;-79.438;2022-09-13T15:37:10;24.90;54.10
33580;DHT22;19909;43.644;-79.438;2022-09-13T15:40:06;25.00;54.30
33580;DHT22;19909;43.644;-79.438;2022-09-13T15:42:35;24.90;54.70
33580;DHT22;19909;43.644;-79.438;2022-09-13T15:45:01;25.00;54.20
33580;DHT22;19909;43.644;-79.438;2022-09-13T15:47:28;25.00;54.10
33580;DHT22;19909;43.644;-79.438;2022-09-13T15:49:54;25.00;54.10
33580;DHT22;19909;43.644;-79.438;2022-09-13T15:52:20;25.00;54.20
33580;DHT22;19909;43.644;-79.438;2022-09-13T15:54:49;25.00;54.20
33580;DHT22;19909;43.644;-79.438;2022-09-13T15:57:24;24.90;54.10
33580;DHT22;19909;43.644;-79.438;2022-09-13T15:59:52;24.90;54.00
33580;DHT22;19909;43.644;-79.438;2022-09-13T16:04:47;25.00;54.10
33580;DHT22;19909;43.644;-79.438;2022-09-13T16:07:14;25.00;54.10
33580;DHT22;19909;43.644;-79.438;2022-09-13T16:09:41;24.90;54.10
33580;DHT22;19909;43.644;-79.438;2022-09-13T16:12:07;25.00;54.30
33580;DHT22;19909;43.644;-79.438;2022-09-13T16:14:34;25.00;54.30
33580;DHT22;19909;43.644;-79.438;2022-09-13T16:17:15;25.00;54.00
33580;DHT22;19909;43.644;-79.438;2022-09-13T16:19:43;25.00;54.10
33580;DHT22;19909;43.644;-79.438;2022-09-13T16:22:09;25.00;54.00
33580;DHT22;19909;43.644;-79.438;2022-09-13T16:24:35;25.00;54.00
33580;DHT22;19909;43.644;-79.438;2022-09-13T16:27:03;25.00;54.20
33580;DHT22;19909;43.644;-79.438;2022-09-13T16:29:29;25.00;54.00
33580;DHT22;19909;43.644;-79.438;2022-09-13T16:31:56;25.00;54.00
33580;DHT22;19909;43.644;-79.438;2022-09-13T16:34:25;25.00;54.00
33580;DHT22;19909;43.644;-79.438;2022-09-13T16:36:51;25.00;54.00
33580;DHT22;19909;43.644;-79.438;2022-09-13T16:39:18;25.00;54.00
33580;DHT22;19909;43.644;-79.438;2022-09-13T16:41:44;25.00;54.40
33580;DHT22;19909;43.644;-79.438;2022-09-13T16:44:11;25.00;54.00
33580;DHT22;19909;43.644;-79.438;2022-09-13T16:46:39;25.00;54.00
33580;DHT22;19909;43.644;-79.438;2022-09-13T16:49:05;25.00;54.00
33580;DHT22;19909;43.644;-79.438;2022-09-13T16:51:31;25.00;54.00
33580;DHT22;19909;43.644;-79.438;2022-09-13T16:53:58;25.00;54.00
33580;DHT22;19909;43.644;-79.438;2022-09-13T16:56:25;25.00;54.60
33580;DHT22;19909;43.644;-79.438;2022-09-13T16:58:52;25.00;54.00
33580;DHT22;19909;43.644;-79.438;2022-09-13T17:01:27;25.00;54.00
33580;DHT22;19909;43.644;-79.438;2022-09-13T17:03:54;25.00;54.00
33580;DHT22;19909;43.644;-79.438;2022-09-13T17:06:23;25.00;54.00
33580;DHT22;19909;43.644;-79.438;2022-09-13T17:08:58;25.00;53.90
33580;DHT22;19909;43.644;-79.438;2022-09-13T17:11:30;25.00;54.00
33580;DHT22;19909;43.644;-79.438;2022-09-13T17:13:58;25.00;54.00
33580;DHT22;19909;43.644;-79.438;2022-09-13T17:16:36;25.00;54.00
33580;DHT22;19909;43.644;-79.438;2022-09-13T17:19:07;25.00;54.00
33580;DHT22;19909;43.644;-79.438;2022-09-13T17:21:34;25.00;54.00
33580;DHT22;19909;43.644;-79.438;2022-09-13T17:24:01;24.90;54.00
33580;DHT22;19909;43.644;-79.438;2022-09-13T17:26:27;24.90;54.00
33580;DHT22;19909;43.644;-79.438;2022-09-13T17:28:54;24.90;53.90
33580;DHT22;19909;43.644;-79.438;2022-09-13T17:31:21;25.00;54.00
33580;DHT22;19909;43.644;-79.438;2022-09-13T17:33:49;24.90;53.90
33580;DHT22;19909;43.644;-79.438;2022-09-13T17:36:15;25.00;54.00
33580;DHT22;19909;43.644;-79.438;2022-09-13T17:38:42;25.00;54.00
33580;DHT22;19909;43.644;-79.438;2022-09-13T17:41:14;25.00;54.00
33580;DHT22;19909;43.644;-79.438;2022-09-13T17:43:41;25.00;54.00
33580;DHT22;19909;43.644;-79.438;2022-09-13T17:46:14;25.00;54.00
33580;DHT22;19909;43.644;-79.438;2022-09-13T17:48:41;25.00;54.00
33580;DHT22;19909;43.644;-79.438;2022-09-13T17:51:11;24.90;53.90
33580;DHT22;19909;43.644;-79.438;2022-09-13T17:53:42;25.00;53.90
33580;DHT22;19909;43.644;-79.438;2022-09-13T17:56:10;24.90;54.00
33580;DHT22;19909;43.644;-79.438;2022-09-13T17:58:36;25.00;54.00
33580;DHT22;19909;43.644;-79.438;2022-09-13T18:01:04;25.00;54.00
33580;DHT22;19909;43.644;-79.438;2022-09-13T18:03:32;25.00;53.90
33580;DHT22;19909;43.644;-79.438;2022-09-13T18:05:59;25.00;54.00
33580;DHT22;19909;43.644;-79.438;2022-09-13T18:08:27;25.00;54.00
33580;DHT22;19909;43.644;-79.438;2022-09-13T18:10:54;25.00;54.10
33580;DHT22;19909;43.644;-79.438;2022-09-13T18:13:20;25.00;54.00
33580;DHT22;19909;43.644;-79.438;2022-09-13T18:16:00;25.00;54.00
33580;DHT22;19909;43.644;-79.438;2022-09-13T18:18:27;25.00;54.00
33580;DHT22;19909;43.644;-79.438;2022-09-13T18:20:55;25.00;54.00
33580;DHT22;19909;43.644;-79.438;2022-09-13T18:23:22;25.00;54.00
33580;DHT22;19909;43.644;-79.438;2022-09-13T18:26:01;24.90;54.00
33580;DHT22;19909;43.644;-79.438;2022-09-13T18:28:29;24.90;54.00
33580;DHT22;19909;43.644;-79.438;2022-09-13T18:30:57;25.00;54.00
33580;DHT22;19909;43.644;-79.438;2022-09-13T18:33:24;25.00;54.00
33580;DHT22;19909;43.644;-79.438;2022-09-13T18:36:04;25.00;54.10
33580;DHT22;19909;43.644;-79.438;2022-09-13T18:38:41;25.00;54.00
33580;DHT22;19909;43.644;-79.438;2022-09-13T18:41:09;25.00;54.10
33580;DHT22;19909;43.644;-79.438;2022-09-13T18:43:37;25.00;54.00
33580;DHT22;19909;43.644;-79.438;2022-09-13T18:46:06;25.00;54.00
33580;DHT22;19909;43.644;-79.438;2022-09-13T18:48:37;25.00;54.00
33580;DHT22;19909;43.644;-79.438;2022-09-13T18:51:04;25.00;54.00
33580;DHT22;19909;43.644;-79.438;2022-09-13T18:53:33;25.00;54.00
33580;DHT22;19909;43.644;-79.438;2022-09-13T18:56:01;24.90;54.00
33580;DHT22;19909;43.644;-79.438;2022-09-13T18:58:31;25.00;54.10